createdAt,value
2018-05-12T00:00:08.377Z,98337.80
2018-05-12T00:02:35.836Z,98343.92
2018-05-12T00:05:03.286Z,98343.84
2018-05-12T00:07:31.367Z,98339.33
2018-05-12T00:09:58.821Z,98343.52
2018-05-12T00:12:26.273Z,98344.60
2018-05-12T00:14:53.773Z,98340.55
2018-05-12T00:17:21.180Z,98338.91
2018-05-12T00:19:48.634Z,98336.04
2018-05-12T00:22:16.093Z,98336.50
2018-05-12T00:24:43.546Z,98334.64
2018-05-12T00:27:10.994Z,98332.59
2018-05-12T00:29:38.444Z,98328.95
2018-05-12T00:32:05.899Z,98331.05
2018-05-12T00:34:33.343Z,98334.42
2018-05-12T00:37:00.794Z,98334.84
2018-05-12T00:39:28.266Z,98328.09
2018-05-12T00:41:55.710Z,98324.27
2018-05-12T00:44:23.159Z,98328.19
2018-05-12T00:46:50.637Z,98328.67
2018-05-12T00:49:18.087Z,98326.47
2018-05-12T00:51:45.553Z,98326.92
2018-05-12T00:54:13.021Z,98330.84
2018-05-12T00:56:40.482Z,98327.56
2018-05-12T00:59:07.972Z,98327.05
2018-05-12T01:01:35.429Z,98325.67
2018-05-12T01:04:02.970Z,98324.08
2018-05-12T01:06:30.406Z,98312.77
2018-05-12T01:08:57.865Z,98314.31
2018-05-12T01:11:25.329Z,98307.38
2018-05-12T01:13:52.792Z,98306.05
2018-05-12T01:16:20.246Z,98303.13
2018-05-12T01:18:47.722Z,98308.05
2018-05-12T01:21:15.186Z,98305.92
2018-05-12T01:23:42.634Z,98306.48
2018-05-12T01:26:10.090Z,98301.09
2018-05-12T01:28:37.558Z,98307.30
2018-05-12T01:31:05.006Z,98287.21
2018-05-12T01:33:32.454Z,98285.13
2018-05-12T01:35:59.913Z,98293.20
2018-05-12T01:38:27.353Z,98293.39
2018-05-12T01:40:54.788Z,98293.31
2018-05-12T01:43:22.260Z,98295.77
2018-05-12T01:45:49.720Z,98296.34
2018-05-12T01:48:17.265Z,98289.69
2018-05-12T01:50:44.714Z,98291.52
2018-05-12T01:53:12.145Z,98288.31
2018-05-12T01:55:39.593Z,98287.48
2018-05-12T01:58:07.033Z,98293.85
2018-05-12T02:00:34.506Z,98292.62
2018-05-12T02:03:01.946Z,98296.59
2018-05-12T02:05:29.398Z,98297.12
2018-05-12T02:07:56.864Z,98296.05
2018-05-12T02:10:24.319Z,98298.98
2018-05-12T02:12:51.819Z,98303.33
2018-05-12T02:15:19.273Z,98306.05
2018-05-12T02:17:46.741Z,98314.81
2018-05-12T02:20:14.195Z,98310.09
2018-05-12T02:22:41.651Z,98310.31
2018-05-12T02:25:09.110Z,98319.83
2018-05-12T02:27:36.577Z,98319.59
2018-05-12T02:30:04.034Z,98320.91
2018-05-12T02:32:31.474Z,98326.34
2018-05-12T02:34:58.954Z,98326.42
2018-05-12T02:37:26.404Z,98321.98
2018-05-12T02:39:53.851Z,98323.20
2018-05-12T02:42:21.315Z,98323.79
2018-05-12T02:44:48.765Z,98326.92
2018-05-12T02:47:16.238Z,98320.17
2018-05-12T02:49:43.692Z,98311.32
2018-05-12T02:52:11.154Z,98311.75
2018-05-12T02:54:38.609Z,98311.91
2018-05-12T02:57:06.061Z,98316.95
2018-05-12T02:59:33.536Z,98318.80
2018-05-12T03:02:01.001Z,98309.29
2018-05-12T03:04:28.535Z,98306.88
2018-05-12T03:06:55.987Z,98308.32
2018-05-12T03:09:23.461Z,98312.17
2018-05-12T03:11:50.938Z,98314.39
2018-05-12T03:14:18.390Z,98316.05
2018-05-12T03:16:45.837Z,98315.14
2018-05-12T03:19:13.319Z,98316.95
2018-05-12T03:21:40.767Z,98324.05
2018-05-12T03:24:08.204Z,98320.23
2018-05-12T03:26:35.675Z,98315.75
2018-05-12T03:29:03.178Z,98320.75
2018-05-12T03:31:30.635Z,98321.04
2018-05-12T03:33:58.114Z,98316.06
2018-05-12T03:36:25.630Z,98319.67
2018-05-12T03:38:53.171Z,98311.80
2018-05-12T03:41:20.591Z,98326.69
2018-05-12T03:43:48.046Z,98312.00
2018-05-12T03:46:15.498Z,98323.48
2018-05-12T03:48:42.974Z,98322.95
2018-05-12T03:51:10.435Z,98323.11
2018-05-12T03:53:37.870Z,98325.50
2018-05-12T03:56:05.345Z,98327.13
2018-05-12T03:58:32.803Z,98332.89
2018-05-12T04:01:00.406Z,98331.83
2018-05-12T04:03:27.861Z,98330.96
2018-05-12T04:06:07.165Z,98340.20
2018-05-12T04:08:47.350Z,98337.55
2018-05-12T04:11:26.635Z,98340.09
2018-05-12T04:13:54.108Z,98341.79
2018-05-12T04:16:21.564Z,98336.84
2018-05-12T04:18:49.037Z,98346.44
2018-05-12T04:21:16.479Z,98339.30
2018-05-12T04:23:43.948Z,98336.22
2018-05-12T04:26:11.395Z,98342.50
2018-05-12T04:28:38.882Z,98337.50
2018-05-12T04:31:06.354Z,98347.27
2018-05-12T04:33:33.824Z,98341.79
2018-05-12T04:36:01.291Z,98344.16
2018-05-12T04:38:28.785Z,98345.02
2018-05-12T04:40:56.222Z,98339.86
2018-05-12T04:43:23.694Z,98332.65
2018-05-12T04:45:51.169Z,98331.86
2018-05-12T04:48:18.696Z,98331.75
2018-05-12T04:50:46.217Z,98337.52
2018-05-12T04:53:13.671Z,98333.70
2018-05-12T04:55:41.130Z,98338.96
2018-05-12T04:58:08.597Z,98341.09
2018-05-12T05:00:36.065Z,98341.13
2018-05-12T05:03:03.535Z,98342.27
2018-05-12T05:05:31.014Z,98338.64
2018-05-12T05:07:58.541Z,98341.45
2018-05-12T05:10:26.010Z,98335.88
2018-05-12T05:12:53.461Z,98329.81
2018-05-12T05:15:21.111Z,98337.38
2018-05-12T05:17:48.496Z,98340.27
2018-05-12T05:20:15.942Z,98334.22
2018-05-12T05:22:43.393Z,98326.02
2018-05-12T05:25:10.849Z,98328.92
2018-05-12T05:27:38.338Z,98330.17
2018-05-12T05:30:05.810Z,98333.68
2018-05-12T05:32:33.275Z,98321.00
2018-05-12T05:35:00.764Z,98319.42
2018-05-12T05:37:28.224Z,98316.01
2018-05-12T05:39:55.665Z,98306.92
2018-05-12T05:42:23.100Z,98301.30
2018-05-12T05:44:50.547Z,98300.30
2018-05-12T05:47:18.233Z,98309.84
2018-05-12T05:49:45.732Z,98312.70
2018-05-12T05:52:13.209Z,98314.81
2018-05-12T05:54:40.728Z,98308.37
2018-05-12T05:57:08.210Z,98303.85
2018-05-12T05:59:35.690Z,98308.35
2018-05-12T06:02:03.128Z,98309.13
2018-05-12T06:04:30.595Z,98306.16
2018-05-12T06:06:58.068Z,98312.53
2018-05-12T06:09:25.498Z,98318.53
2018-05-12T06:11:53.178Z,98312.38
2018-05-12T06:14:20.752Z,98317.66
2018-05-12T06:16:48.259Z,98315.06
2018-05-12T06:19:15.722Z,98316.83
2018-05-12T06:21:43.203Z,98322.31
2018-05-12T06:24:10.659Z,98316.80
2018-05-12T06:26:38.125Z,98312.69
2018-05-12T06:29:05.572Z,98316.00
2018-05-12T06:31:33.022Z,98320.76
2018-05-12T06:34:00.511Z,98316.70
2018-05-12T06:36:27.968Z,98330.11
2018-05-12T06:38:55.464Z,98321.69
2018-05-12T06:41:22.934Z,98312.87
2018-05-12T06:43:50.419Z,98313.72
2018-05-12T06:46:17.890Z,98319.47
2018-05-12T06:48:45.356Z,98312.28
2018-05-12T06:51:12.828Z,98312.34
2018-05-12T06:53:40.281Z,98318.41
2018-05-12T06:56:07.749Z,98316.82
2018-05-12T06:58:35.241Z,98311.83
2018-05-12T07:01:02.696Z,98313.70
2018-05-12T07:03:30.165Z,98315.66
2018-05-12T07:05:57.621Z,98314.98
2018-05-12T07:08:25.074Z,98316.92
2018-05-12T07:10:52.533Z,98312.07
2018-05-12T07:13:19.998Z,98312.70
2018-05-12T07:15:47.444Z,98310.27
2018-05-12T07:18:14.910Z,98310.51
2018-05-12T07:20:42.353Z,98309.59
2018-05-12T07:23:09.811Z,98317.88
2018-05-12T07:25:37.327Z,98313.12
2018-05-12T07:28:04.835Z,98309.00
2018-05-12T07:30:32.281Z,98304.77
2018-05-12T07:32:59.756Z,98306.05
2018-05-12T07:35:27.248Z,98301.03
2018-05-12T07:37:54.689Z,98302.86
2018-05-12T07:40:22.165Z,98303.80
2018-05-12T07:42:49.615Z,98298.06
2018-05-12T07:45:17.079Z,98294.80
2018-05-12T07:47:44.530Z,98292.83
2018-05-12T07:50:11.968Z,98285.84
2018-05-12T07:52:39.418Z,98278.45
2018-05-12T07:55:06.882Z,98276.98
2018-05-12T07:57:34.350Z,98269.77
2018-05-12T08:00:01.807Z,98267.73
2018-05-12T08:02:29.287Z,98270.64
2018-05-12T08:04:56.747Z,98264.04
2018-05-12T08:07:24.231Z,98267.08
2018-05-12T08:09:51.718Z,98267.14
2018-05-12T08:12:19.249Z,98258.55
2018-05-12T08:14:46.721Z,98261.35
2018-05-12T08:17:14.201Z,98263.86
2018-05-12T08:19:41.647Z,98258.13
2018-05-12T08:22:09.102Z,98257.56
2018-05-12T08:24:36.629Z,98254.95
2018-05-12T08:27:04.085Z,98251.58
2018-05-12T08:29:31.527Z,98252.49
2018-05-12T08:31:59.017Z,98250.44
2018-05-12T08:34:26.466Z,98248.52
2018-05-12T08:36:53.915Z,98242.77
2018-05-12T08:39:21.412Z,98245.94
2018-05-12T08:41:48.857Z,98240.00
2018-05-12T08:44:16.408Z,98243.69
2018-05-12T08:46:43.909Z,98240.12
2018-05-12T08:51:45.172Z,98229.22
2018-05-12T08:54:12.634Z,98223.36
2018-05-12T08:56:40.156Z,98225.19
2018-05-12T08:59:07.614Z,98222.09
2018-05-12T09:01:35.060Z,98221.23
2018-05-12T09:04:02.506Z,98221.27
2018-05-12T09:06:29.956Z,98214.17
2018-05-12T09:08:57.417Z,98212.41
2018-05-12T09:11:24.989Z,98218.15
2018-05-12T09:13:52.442Z,98214.17
2018-05-12T09:16:19.906Z,98215.41
2018-05-12T09:18:47.417Z,98211.58
2018-05-12T09:21:14.869Z,98209.28
2018-05-12T09:23:42.365Z,98204.09
2018-05-12T09:26:09.907Z,98206.80
2018-05-12T09:28:37.382Z,98201.41
2018-05-12T09:31:04.850Z,98197.38
2018-05-12T09:33:32.289Z,98196.42
2018-05-12T09:35:59.746Z,98200.31
2018-05-12T09:38:27.193Z,98191.69
2018-05-12T09:40:54.650Z,98189.34
2018-05-12T09:43:22.121Z,98186.07
2018-05-12T09:45:49.639Z,98183.28
2018-05-12T09:48:17.166Z,98175.67
2018-05-12T09:50:44.610Z,98174.98
2018-05-12T09:53:12.064Z,98166.17
2018-05-12T09:55:39.522Z,98165.56
2018-05-12T09:58:06.977Z,98166.81
2018-05-12T10:00:34.425Z,98160.95
2018-05-12T10:03:01.887Z,98161.29
2018-05-12T10:05:29.363Z,98158.23
2018-05-12T10:07:58.662Z,98158.70
2018-05-12T10:10:26.164Z,98150.58
2018-05-12T10:12:53.694Z,98154.65
2018-05-12T10:15:21.121Z,98142.73
2018-05-12T10:17:48.553Z,98141.82
2018-05-12T10:20:16.004Z,98142.23
2018-05-12T10:22:43.481Z,98138.98
2018-05-12T10:25:10.955Z,98135.48
2018-05-12T10:27:38.389Z,98137.69
2018-05-12T10:30:05.875Z,98139.84
2018-05-12T10:32:33.295Z,98135.33
2018-05-12T10:35:00.748Z,98129.65
2018-05-12T10:37:28.210Z,98121.19
2018-05-12T10:39:55.673Z,98117.66
2018-05-12T10:42:23.158Z,98114.17
2018-05-12T10:44:50.659Z,98110.86
2018-05-12T10:47:18.115Z,98111.80
2018-05-12T10:49:45.567Z,98108.45
2018-05-12T10:52:13.034Z,98102.97
2018-05-12T10:54:40.476Z,98096.78
2018-05-12T10:57:07.943Z,98094.23
2018-05-12T10:59:35.398Z,98079.89
2018-05-12T11:02:02.928Z,98084.21
2018-05-12T11:04:30.309Z,98079.93
2018-05-12T11:06:57.755Z,98073.86
2018-05-12T11:09:25.215Z,98076.91
2018-05-12T11:11:52.658Z,98062.27
2018-05-12T11:14:20.110Z,98063.58
2018-05-12T11:16:47.575Z,98063.45
2018-05-12T11:19:15.010Z,98057.01
2018-05-12T11:21:42.471Z,98058.11
2018-05-12T11:24:09.914Z,98037.92
2018-05-12T11:26:37.570Z,98029.36
2018-05-12T11:29:05.058Z,98027.11
2018-05-12T11:31:32.533Z,98020.50
2018-05-12T11:34:00.010Z,98018.70
2018-05-12T11:36:27.512Z,98011.86
2018-05-12T11:38:54.954Z,98007.75
2018-05-12T11:41:22.409Z,98006.73
2018-05-12T11:43:49.911Z,97997.53
2018-05-12T11:46:17.374Z,98005.05
2018-05-12T11:48:44.850Z,97996.03
2018-05-12T11:51:12.298Z,97989.78
2018-05-12T11:53:39.738Z,97996.01
2018-05-12T11:56:07.222Z,97998.17
2018-05-12T11:58:34.688Z,97993.85
2018-05-12T12:01:02.157Z,97991.19
2018-05-12T12:03:29.622Z,97984.73
2018-05-12T12:05:57.077Z,97985.52
2018-05-12T12:08:24.525Z,97977.23
2018-05-12T12:10:51.997Z,97973.36
2018-05-12T12:13:19.450Z,97973.84
2018-05-12T12:15:46.889Z,97967.95
2018-05-12T12:18:14.430Z,97964.53
2018-05-12T12:20:41.883Z,97966.66
2018-05-12T12:23:09.328Z,97964.15
2018-05-12T12:25:36.775Z,97960.95
2018-05-12T12:28:04.218Z,97955.55
2018-05-12T12:30:31.682Z,97953.09
2018-05-12T12:32:59.127Z,97953.66
2018-05-12T12:35:26.601Z,97946.98
2018-05-12T12:37:54.046Z,97948.45
2018-05-12T12:40:21.483Z,97940.25
2018-05-12T12:42:48.921Z,97934.77
2018-05-12T12:45:16.385Z,97939.98
2018-05-12T12:47:43.853Z,97936.73
2018-05-12T12:50:11.291Z,97923.02
2018-05-12T12:52:38.740Z,97922.45
2018-05-12T12:55:06.179Z,97923.34
2018-05-12T12:57:33.694Z,97915.53
2018-05-12T13:00:01.154Z,97914.38
2018-05-12T13:02:28.648Z,97914.61
2018-05-12T13:04:56.183Z,97905.89
2018-05-12T13:07:23.553Z,97903.70
2018-05-12T13:09:51.017Z,97899.44
2018-05-12T13:12:18.503Z,97894.77
2018-05-12T13:14:45.947Z,97892.84
2018-05-12T13:17:13.376Z,97884.86
2018-05-12T13:19:40.830Z,97885.94
2018-05-12T13:22:08.281Z,97878.70
2018-05-12T13:24:35.725Z,97873.38
2018-05-12T13:27:03.161Z,97874.30
2018-05-12T13:29:30.597Z,97867.28
2018-05-12T13:31:58.029Z,97867.72
2018-05-12T13:34:25.466Z,97861.08
2018-05-12T13:36:52.901Z,97861.98
2018-05-12T13:39:20.332Z,97864.89
2018-05-12T13:41:47.980Z,97851.41
2018-05-12T13:44:15.436Z,97850.70
2018-05-12T13:46:42.978Z,97846.95
2018-05-12T13:49:10.440Z,97846.33
2018-05-12T13:51:37.885Z,97842.52
2018-05-12T13:54:05.335Z,97842.34
2018-05-12T13:56:32.781Z,97840.27
2018-05-12T13:59:00.222Z,97839.44
2018-05-12T14:01:27.818Z,97839.11
2018-05-12T14:03:55.286Z,97841.02
2018-05-12T14:06:22.846Z,97826.20
2018-05-12T14:08:50.373Z,97829.05
2018-05-12T14:11:18.667Z,97826.69
2018-05-12T14:13:46.131Z,97824.40
2018-05-12T14:16:13.885Z,97818.84
2018-05-12T14:18:41.262Z,97819.80
2018-05-12T14:21:08.725Z,97815.77
2018-05-12T14:23:36.168Z,97812.77
2018-05-12T14:26:03.606Z,97816.48
2018-05-12T14:28:31.046Z,97810.16
2018-05-12T14:30:58.494Z,97811.55
2018-05-12T14:33:26.180Z,97804.55
2018-05-12T14:35:53.624Z,97807.98
2018-05-12T14:38:21.057Z,97802.77
2018-05-12T14:40:48.521Z,97796.86
2018-05-12T14:43:16.010Z,97797.08
2018-05-12T14:45:43.451Z,97798.37
2018-05-12T14:48:10.884Z,97790.09
2018-05-12T14:50:38.409Z,97783.25
2018-05-12T14:53:05.861Z,97787.73
2018-05-12T14:55:33.444Z,97787.01
2018-05-12T14:58:00.890Z,97773.62
2018-05-12T15:00:28.378Z,97776.12
2018-05-12T15:02:55.826Z,97769.37
2018-05-12T15:05:23.266Z,97775.25
2018-05-12T15:07:50.782Z,97767.25
2018-05-12T15:10:18.258Z,97767.86
2018-05-12T15:12:45.707Z,97763.51
2018-05-12T15:15:13.163Z,97767.70
2018-05-12T15:17:40.605Z,97762.05
2018-05-12T15:20:08.048Z,97753.03
2018-05-12T15:22:35.505Z,97749.92
2018-05-12T15:25:02.975Z,97751.86
2018-05-12T15:27:30.435Z,97748.64
2018-05-12T15:29:57.926Z,97746.20
2018-05-12T15:32:25.441Z,97740.56
2018-05-12T15:34:52.905Z,97738.97
2018-05-12T15:37:20.355Z,97740.79
2018-05-12T15:39:47.808Z,97738.61
2018-05-12T15:42:15.363Z,97734.63
2018-05-12T15:44:42.863Z,97736.52
2018-05-12T15:47:10.405Z,97729.28
2018-05-12T15:49:37.861Z,97722.42
2018-05-12T15:52:05.322Z,97718.60
2018-05-12T15:54:32.775Z,97716.23
2018-05-12T15:57:00.382Z,97722.00
2018-05-12T15:59:27.948Z,97716.16
2018-05-12T16:01:55.397Z,97719.11
2018-05-12T16:04:22.863Z,97719.46
2018-05-12T16:06:50.300Z,97715.43
2018-05-12T16:09:17.805Z,97720.14
2018-05-12T16:11:45.237Z,97712.31
2018-05-12T16:14:12.689Z,97711.25
2018-05-12T16:16:40.143Z,97711.19
2018-05-12T16:19:07.588Z,97704.77
2018-05-12T16:21:35.051Z,97706.70
2018-05-12T16:24:02.500Z,97708.35
2018-05-12T16:26:29.959Z,97698.29
2018-05-12T16:28:57.440Z,97703.83
2018-05-12T16:31:24.951Z,97694.51
2018-05-12T16:33:52.482Z,97701.23
2018-05-12T16:36:19.920Z,97696.48
2018-05-12T16:38:47.383Z,97695.62
2018-05-12T16:41:14.840Z,97689.92
2018-05-12T16:43:42.302Z,97687.38
2018-05-12T16:46:09.755Z,97691.27
2018-05-12T16:48:37.200Z,97693.22
2018-05-12T16:51:04.866Z,97692.65
2018-05-12T16:53:32.291Z,97693.24
2018-05-12T16:55:59.727Z,97694.18
2018-05-12T16:58:27.273Z,97689.43
2018-05-12T17:00:54.739Z,97681.20
2018-05-12T17:03:22.174Z,97676.41
2018-05-12T17:05:49.623Z,97684.25
2018-05-12T17:08:17.071Z,97678.98
2018-05-12T17:10:44.581Z,97678.64
2018-05-12T17:13:12.096Z,97679.14
2018-05-12T17:15:39.468Z,97681.71
2018-05-12T17:18:06.908Z,97681.33
2018-05-12T17:20:34.371Z,97680.44
2018-05-12T17:23:01.817Z,97679.81
2018-05-12T17:25:29.258Z,97682.44
2018-05-12T17:27:56.696Z,97683.77
2018-05-12T17:30:24.141Z,97684.28
2018-05-12T17:32:51.608Z,97684.36
2018-05-12T17:35:19.071Z,97685.80
2018-05-12T17:37:46.579Z,97683.24
2018-05-12T17:40:13.972Z,97683.41
2018-05-12T17:42:41.425Z,97685.29
2018-05-12T17:45:08.859Z,97678.06
2018-05-12T17:47:36.292Z,97681.05
2018-05-12T17:50:03.777Z,97680.49
2018-05-12T17:52:31.190Z,97679.27
2018-05-12T17:54:58.643Z,97679.17
2018-05-12T17:57:26.083Z,97676.44
2018-05-12T17:59:53.558Z,97677.81
2018-05-12T18:02:21.003Z,97678.71
2018-05-12T18:04:48.443Z,97680.38
2018-05-12T18:07:15.880Z,97670.75
2018-05-12T18:09:43.346Z,97673.58
2018-05-12T18:12:10.801Z,97666.31
2018-05-12T18:14:38.365Z,97670.38
2018-05-12T18:17:06.336Z,97678.46
2018-05-12T18:19:33.768Z,97678.94
2018-05-12T18:22:01.207Z,97675.92
2018-05-12T18:24:28.654Z,97666.64
2018-05-12T18:26:56.096Z,97669.78
2018-05-12T18:29:23.545Z,97668.14
2018-05-12T18:31:51.095Z,97660.11
2018-05-12T18:34:18.500Z,97658.61
2018-05-12T18:36:45.943Z,97666.13
2018-05-12T18:39:13.395Z,97665.41
2018-05-12T18:41:40.838Z,97672.44
2018-05-12T18:44:08.341Z,97670.47
2018-05-12T18:46:35.769Z,97676.63
2018-05-12T18:49:03.251Z,97666.16
2018-05-12T18:51:30.720Z,97666.22
2018-05-12T18:53:58.157Z,97671.45
2018-05-12T18:56:25.591Z,97668.89
2018-05-12T18:58:53.042Z,97673.23
2018-05-12T19:01:20.493Z,97674.66
2018-05-12T19:03:47.934Z,97678.51
2018-05-12T19:06:15.373Z,97681.95
2018-05-12T19:08:42.808Z,97676.72
2018-05-12T19:11:10.247Z,97683.66
2018-05-12T19:13:37.684Z,97685.41
2018-05-12T19:16:05.133Z,97690.59
2018-05-12T19:18:32.570Z,97691.11
2018-05-12T19:21:00.003Z,97691.02
2018-05-12T19:23:27.492Z,97694.65
2018-05-12T19:25:54.933Z,97689.40
2018-05-12T19:28:22.369Z,97691.95
2018-05-12T19:30:49.828Z,97689.30
2018-05-12T19:33:17.269Z,97691.57
2018-05-12T19:35:44.715Z,97694.55
2018-05-12T19:38:12.150Z,97692.95
2018-05-12T19:40:39.597Z,97697.30
2018-05-12T19:43:07.055Z,97695.73
2018-05-12T19:45:34.497Z,97701.67
2018-05-12T19:48:01.932Z,97702.20
2018-05-12T19:50:29.390Z,97704.09
2018-05-12T19:52:56.834Z,97702.84
2018-05-12T19:55:24.294Z,97697.77
2018-05-12T19:57:51.757Z,97701.77
2018-05-12T20:00:19.240Z,97698.90
2018-05-12T20:02:46.676Z,97696.69
2018-05-12T20:05:14.114Z,97698.02
2018-05-12T20:07:41.553Z,97707.33
2018-05-12T20:10:08.988Z,97705.75
2018-05-12T20:12:36.444Z,97701.19
2018-05-12T20:15:03.876Z,97703.25
2018-05-12T20:17:31.326Z,97699.24
2018-05-12T20:19:58.773Z,97701.88
2018-05-12T20:22:26.322Z,97693.12
2018-05-12T20:24:53.834Z,97691.50
2018-05-12T20:27:21.318Z,97693.39
2018-05-12T20:29:49.745Z,97690.91
2018-05-12T20:32:17.207Z,97693.02
2018-05-12T20:34:44.665Z,97688.92
2018-05-12T20:37:12.191Z,97689.03
2018-05-12T20:39:39.562Z,97685.83
2018-05-12T20:42:07.200Z,97685.95
2018-05-12T20:44:34.654Z,97684.58
2018-05-12T20:47:02.128Z,97685.29
2018-05-12T20:49:29.581Z,97675.27
2018-05-12T20:51:57.074Z,97671.42
2018-05-12T20:54:24.510Z,97678.08
2018-05-12T20:56:51.984Z,97671.76
2018-05-12T20:59:19.478Z,97682.55
2018-05-12T21:01:46.925Z,97678.41
2018-05-12T21:04:14.408Z,97672.25
2018-05-12T21:06:41.871Z,97673.65
2018-05-12T21:09:09.323Z,97673.17
2018-05-12T21:11:36.765Z,97676.26
2018-05-12T21:14:04.207Z,97674.70
2018-05-12T21:16:31.653Z,97670.16
2018-05-12T21:18:59.094Z,97667.84
2018-05-12T21:21:26.555Z,97664.77
2018-05-12T21:23:54.103Z,97679.60
2018-05-12T21:26:21.535Z,97672.05
2018-05-12T21:28:48.978Z,97670.78
2018-05-12T21:31:16.456Z,97668.05
2018-05-12T21:33:43.920Z,97670.57
2018-05-12T21:36:11.382Z,97674.70
2018-05-12T21:38:38.921Z,97666.75
2018-05-12T21:41:06.395Z,97674.05
2018-05-12T21:43:33.846Z,97669.82
2018-05-12T21:46:01.320Z,97672.48
2018-05-12T21:48:28.771Z,97678.22
2018-05-12T21:50:56.216Z,97686.64
2018-05-12T21:53:23.686Z,97689.13
2018-05-12T21:55:51.163Z,97692.48
2018-05-12T21:58:18.705Z,97688.53
2018-05-12T22:00:46.175Z,97701.83
2018-05-12T22:03:13.667Z,97700.83
2018-05-12T22:05:41.166Z,97694.04
2018-05-12T22:08:09.307Z,97697.88
2018-05-12T22:10:36.755Z,97695.59
2018-05-12T22:13:04.233Z,97703.12
2018-05-12T22:15:31.702Z,97698.44
2018-05-12T22:17:59.187Z,97691.11
2018-05-12T22:20:26.621Z,97697.49
2018-05-12T22:22:54.098Z,97694.38
2018-05-12T22:25:21.910Z,97693.59
2018-05-12T22:27:49.357Z,97690.44
2018-05-12T22:30:16.883Z,97693.02
2018-05-12T22:32:44.328Z,97696.45
2018-05-12T22:35:11.785Z,97700.03
2018-05-12T22:37:39.276Z,97695.55
2018-05-12T22:40:06.746Z,97696.63
2018-05-12T22:42:34.191Z,97695.92
2018-05-12T22:45:01.691Z,97694.42
2018-05-12T22:47:29.236Z,97700.72
2018-05-12T22:49:56.674Z,97702.30
2018-05-12T22:52:24.212Z,97697.88
2018-05-12T22:54:52.029Z,97692.88
2018-05-12T22:57:19.512Z,97694.63
2018-05-12T22:59:47.011Z,97691.07
2018-05-12T23:02:14.569Z,97700.82
2018-05-12T23:04:42.066Z,97687.80
2018-05-12T23:07:09.497Z,97688.66
2018-05-12T23:09:37.053Z,97682.30
2018-05-12T23:12:04.517Z,97683.37
2018-05-12T23:14:32.078Z,97676.55
2018-05-12T23:16:59.560Z,97676.94
2018-05-12T23:19:27.017Z,97678.86
2018-05-12T23:21:54.503Z,97680.66
2018-05-12T23:24:21.966Z,97684.09
2018-05-12T23:26:49.449Z,97683.52
2018-05-12T23:29:16.962Z,97683.02
2018-05-12T23:31:44.501Z,97674.98
2018-05-12T23:34:12.059Z,97675.80
2018-05-12T23:36:39.501Z,97666.50
2018-05-12T23:39:07.195Z,97672.58
2018-05-12T23:41:34.717Z,97672.80
2018-05-12T23:44:02.207Z,97676.91
2018-05-12T23:46:29.770Z,97674.82
2018-05-12T23:48:57.278Z,97676.52
2018-05-12T23:51:24.936Z,97675.28
2018-05-12T23:53:52.323Z,97670.05
2018-05-12T23:56:19.792Z,97663.17
2018-05-12T23:58:47.273Z,97667.30
